Time;durP1;ratioP1;P1;durP2;ratioP2;P2;SDS_P1;SDS_P2;PMS_P1;PMS_P2;Temp;Humidity;BMP_temperature;BMP_pressure;BME280_temperature;BME280_humidity;BME280_pressure;Samples;Min_cycle;Max_cycle;Signal;HPM_P1;HPM_P2
2022/06/23 00:02:14;;;;;;;13.30;7.87;;;21.00;99.90;;;;;;10296961;28;20894;-68
2022/06/23 00:07:24;;;;;;;11.77;7.03;;;21.00;99.90;;;;;;10321184;28;20256;-68
2022/06/23 00:12:30;;;;;;;11.97;6.60;;;21.10;99.90;;;;;;10314689;28;20726;-67
2022/06/23 00:17:32;;;;;;;10.77;7.27;;;21.10;99.90;;;;;;10324240;28;20262;-68
2022/06/23 00:22:36;;;;;;;9.20;6.50;;;21.10;99.90;;;;;;10315855;28;20245;-67
2022/06/23 00:27:39;;;;;;;10.47;7.50;;;21.10;99.90;;;;;;10312997;28;20214;-68
2022/06/23 00:32:40;;;;;;;12.70;7.10;;;21.10;99.90;;;;;;10312426;28;20752;-66
2022/06/23 00:37:49;;;;;;;12.53;7.03;;;21.00;99.90;;;;;;10312163;28;20232;-67
2022/06/23 00:43:03;;;;;;;14.27;7.03;;;21.00;99.90;;;;;;10307405;28;20225;-66
2022/06/23 00:48:18;;;;;;;9.27;6.37;;;21.00;99.90;;;;;;10315568;28;20218;-68
2022/06/23 00:53:27;;;;;;;7.23;5.57;;;21.00;99.90;;;;;;10311832;28;20245;-68
2022/06/23 00:58:42;;;;;;;11.40;7.10;;;21.00;99.90;;;;;;10312540;28;20215;-67
2022/06/23 01:04:06;;;;;;;10.43;6.50;;;20.90;99.90;;;;;;10320156;28;20222;-68
2022/06/23 01:09:24;;;;;;;13.20;6.33;;;20.70;99.90;;;;;;10327124;28;20222;-68
2022/06/23 01:14:35;;;;;;;11.43;6.97;;;20.60;99.90;;;;;;10318891;28;20602;-68
2022/06/23 01:19:51;;;;;;;10.73;7.10;;;20.40;99.90;;;;;;10327005;28;20864;-68
2022/06/23 01:25:02;;;;;;;9.73;6.50;;;20.30;99.90;;;;;;10311251;28;20228;-68
2022/06/23 01:30:09;;;;;;;10.13;6.30;;;20.30;99.90;;;;;;10305058;28;20238;-68
2022/06/23 01:35:31;;;;;;;9.00;6.70;;;20.20;99.90;;;;;;10319105;28;20308;-67
2022/06/23 01:40:45;;;;;;;8.23;6.63;;;20.10;99.90;;;;;;10320187;28;20226;-68
2022/06/23 01:46:00;;;;;;;8.37;6.23;;;20.10;99.90;;;;;;10307105;28;20233;-68
2022/06/23 01:51:01;;;;;;;14.47;6.50;;;20.00;99.90;;;;;;10317910;28;20232;-67
2022/06/23 01:56:24;;;;;;;10.40;6.63;;;19.90;99.90;;;;;;10317608;28;20692;-67
2022/06/23 02:01:41;;;;;;;13.00;6.67;;;19.80;99.90;;;;;;10317977;28;20296;-67
2022/06/23 02:06:58;;;;;;;9.13;6.60;;;19.80;99.90;;;;;;10317584;28;20217;-68
2022/06/23 02:11:59;;;;;;;9.93;6.40;;;19.70;99.90;;;;;;10315683;28;20222;-68
2022/06/23 02:17:08;;;;;;;12.53;5.83;;;19.70;99.90;;;;;;10317465;28;20878;-67
2022/06/23 02:22:18;;;;;;;9.63;6.37;;;19.60;99.90;;;;;;10315291;28;20312;-68
2022/06/23 02:27:48;;;;;;;7.93;5.93;;;19.50;99.90;;;;;;10293635;28;20608;-68
2022/06/23 02:33:27;;;;;;;8.10;6.77;;;19.50;99.90;;;;;;10318154;28;20719;-67
2022/06/23 02:38:38;;;;;;;12.57;7.27;;;19.40;99.90;;;;;;10299536;28;20218;-67
2022/06/23 02:43:50;;;;;;;12.33;6.40;;;19.30;99.90;;;;;;10305109;28;20329;-67
2022/06/23 02:49:06;;;;;;;9.60;7.10;;;19.30;99.90;;;;;;10317281;28;20214;-68
2022/06/23 02:54:51;;;;;;;11.53;6.83;;;19.30;99.90;;;;;;10312793;28;20342;-68
2022/06/23 03:00:13;;;;;;;11.57;6.73;;;19.30;99.90;;;;;;10309539;28;20528;-68
2022/06/23 03:05:27;;;;;;;15.67;7.17;;;19.20;99.90;;;;;;10324819;28;20232;-67
2022/06/23 03:10:50;;;;;;;10.07;7.67;;;19.10;99.90;;;;;;10325476;28;20229;-67
2022/06/23 03:16:14;;;;;;;9.17;7.13;;;19.00;99.90;;;;;;10320012;28;20269;-68
2022/06/23 03:21:23;;;;;;;11.40;8.67;;;18.90;99.90;;;;;;10294340;28;20604;-68
2022/06/23 03:26:34;;;;;;;8.97;7.23;;;18.80;99.90;;;;;;10320830;28;20748;-68
2022/06/23 03:32:06;;;;;;;9.80;8.17;;;18.80;99.90;;;;;;10309195;28;20234;-68
2022/06/23 03:37:14;;;;;;;11.33;7.90;;;18.80;99.90;;;;;;10309521;28;20225;-69
2022/06/23 03:42:27;;;;;;;10.47;7.17;;;18.80;99.90;;;;;;10315680;28;20221;-68
2022/06/23 03:47:44;;;;;;;11.63;8.00;;;18.80;99.90;;;;;;10319332;28;20213;-69
2022/06/23 03:52:48;;;;;;;9.10;7.50;;;18.90;99.90;;;;;;10321244;28;20599;-67
2022/06/23 03:58:15;;;;;;;10.20;7.40;;;19.10;99.90;;;;;;10309743;28;20219;-68
2022/06/23 04:03:24;;;;;;;10.03;7.60;;;19.20;99.90;;;;;;10305362;28;20715;-67
2022/06/23 04:08:40;;;;;;;10.30;7.17;;;19.20;99.90;;;;;;10320567;28;20216;-68
2022/06/23 04:13:41;;;;;;;10.97;7.47;;;19.30;99.90;;;;;;10312706;28;20225;-68
2022/06/23 04:18:45;;;;;;;10.97;7.77;;;19.40;99.90;;;;;;10327454;28;20218;-67
2022/06/23 04:23:52;;;;;;;7.67;6.93;;;19.60;99.90;;;;;;10319976;28;20254;-67
2022/06/23 04:29:00;;;;;;;11.23;7.50;;;19.80;99.90;;;;;;10321128;28;20265;-67
2022/06/23 04:34:01;;;;;;;9.40;6.63;;;20.00;99.90;;;;;;10316912;28;20272;-66
2022/06/23 04:39:08;;;;;;;9.60;7.17;;;20.20;99.90;;;;;;10321890;28;20288;-67
2022/06/23 04:44:20;;;;;;;9.00;6.90;;;20.60;99.90;;;;;;10312757;28;20345;-68
2022/06/23 04:49:27;;;;;;;10.30;6.90;;;20.90;99.90;;;;;;10317038;28;20210;-68
2022/06/23 04:54:56;;;;;;;8.03;6.83;;;21.00;99.90;;;;;;10326851;28;20261;-69
2022/06/23 05:00:00;;;;;;;11.67;6.97;;;21.10;99.90;;;;;;10305762;28;20233;-69
2022/06/23 05:05:26;;;;;;;11.40;6.70;;;21.30;99.90;;;;;;10317880;28;20214;-68
2022/06/23 05:10:45;;;;;;;11.63;6.73;;;22.40;99.90;;;;;;10326011;28;20268;-68
2022/06/23 05:15:59;;;;;;;9.93;6.73;;;25.00;99.90;;;;;;10321311;28;20227;-68
2022/06/23 05:21:53;;;;;;;9.27;6.47;;;27.10;99.90;;;;;;10315637;28;20920;-69
2022/06/23 05:27:07;;;;;;;13.17;7.83;;;28.20;99.90;;;;;;10270323;28;20225;-69
2022/06/23 05:32:25;;;;;;;12.07;7.83;;;29.30;99.90;;;;;;10315686;28;20266;-69
2022/06/23 05:37:58;;;;;;;8.40;5.93;;;30.40;95.70;;;;;;10311099;28;20847;-69
2022/06/23 05:43:03;;;;;;;9.67;6.97;;;31.20;91.50;;;;;;10298142;28;20326;-70
2022/06/23 05:48:07;;;;;;;10.77;6.93;;;31.60;88.00;;;;;;10322892;28;20220;-70
2022/06/23 05:53:28;;;;;;;10.50;7.90;;;32.90;80.90;;;;;;10319409;28;20224;-69
2022/06/23 05:58:29;;;;;;;10.43;6.73;;;34.00;71.60;;;;;;10319654;28;20341;-69
2022/06/23 06:03:40;;;;;;;11.10;6.27;;;34.40;67.30;;;;;;10324207;28;20353;-69
2022/06/23 06:14:20;;;;;;;12.23;5.90;;;35.00;59.90;;;;;;10309852;28;20301;-69
2022/06/23 06:19:23;;;;;;;9.83;4.93;;;35.80;58.90;;;;;;10302884;28;20266;-69
2022/06/23 06:24:33;;;;;;;11.57;6.17;;;36.70;56.40;;;;;;10318400;28;20248;-69
2022/06/23 06:29:39;;;;;;;11.23;5.47;;;36.40;55.80;;;;;;10310357;28;20215;-70
2022/06/23 06:34:45;;;;;;;9.47;6.67;;;37.30;53.60;;;;;;10301947;28;20234;-72
2022/06/23 06:39:51;;;;;;;12.27;6.90;;;37.90;51.60;;;;;;10316559;28;20226;-69
2022/06/23 06:44:56;;;;;;;10.80;7.23;;;37.60;50.40;;;;;;10310737;28;20698;-69
2022/06/23 06:50:02;;;;;;;12.17;8.07;;;36.50;51.80;;;;;;10317908;28;20230;-69
2022/06/23 06:55:08;;;;;;;13.43;7.93;;;36.90;51.60;;;;;;10313045;28;20238;-69
2022/06/23 07:00:35;;;;;;;11.40;6.17;;;37.50;50.90;;;;;;10320641;28;20230;-70
2022/06/23 07:05:57;;;;;;;13.13;7.70;;;39.50;48.00;;;;;;10315571;28;20779;-69
2022/06/23 07:11:14;;;;;;;11.33;5.73;;;40.40;45.00;;;;;;10310510;28;20237;-71
2022/06/23 07:16:37;;;;;;;15.40;10.20;;;40.90;44.10;;;;;;10307705;28;20319;-70
2022/06/23 07:21:44;;;;;;;16.83;10.10;;;39.50;44.10;;;;;;10313121;28;20439;-69
2022/06/23 07:27:16;;;;;;;15.23;9.73;;;37.80;47.20;;;;;;10307278;28;20908;-68
2022/06/23 07:32:40;;;;;;;15.17;9.43;;;38.10;46.90;;;;;;10312394;28;20233;-70
2022/06/23 07:38:09;;;;;;;9.87;6.63;;;38.60;46.10;;;;;;10300578;28;20222;-68
2022/06/23 07:43:20;;;;;;;12.70;6.30;;;39.70;45.80;;;;;;10311020;28;20236;-67
2022/06/23 07:48:21;;;;;;;15.03;7.33;;;40.50;44.00;;;;;;10313637;28;20663;-67
2022/06/23 07:53:28;;;;;;;11.90;6.47;;;40.60;42.40;;;;;;10308035;28;20321;-68
2022/06/23 07:58:32;;;;;;;9.63;5.40;;;41.80;41.40;;;;;;10312842;28;20693;-69
2022/06/23 08:03:43;;;;;;;13.17;5.60;;;41.40;41.80;;;;;;10314546;28;20226;-69
2022/06/23 08:08:45;;;;;;;8.67;4.97;;;42.70;39.80;;;;;;10314018;28;20245;-69
2022/06/23 08:13:51;;;;;;;13.30;5.83;;;42.00;40.50;;;;;;10313825;28;20592;-68
2022/06/23 08:19:16;;;;;;;13.60;5.53;;;40.50;42.00;;;;;;10300667;28;20236;-69
2022/06/23 08:24:23;;;;;;;8.07;4.73;;;40.70;42.80;;;;;;10312268;28;20225;-68
2022/06/23 08:29:32;;;;;;;11.43;5.70;;;41.80;40.50;;;;;;10311101;28;20225;-68
2022/06/23 08:34:34;;;;;;;12.60;5.00;;;40.30;42.50;;;;;;10312905;28;20222;-68
2022/06/23 08:39:55;;;;;;;12.47;5.53;;;39.60;43.50;;;;;;10305150;28;20234;-67
2022/06/23 08:45:32;;;;;;;12.90;5.10;;;38.00;45.90;;;;;;10307179;28;20258;-67
2022/06/23 08:50:38;;;;;;;14.50;5.47;;;36.20;49.40;;;;;;10302221;28;20220;-68
2022/06/23 08:55:53;;;;;;;10.50;5.20;;;35.40;51.50;;;;;;10304440;28;20443;-68
2022/06/23 09:01:21;;;;;;;12.80;5.60;;;35.50;51.20;;;;;;10314393;28;20272;-68
2022/06/23 09:06:41;;;;;;;12.13;7.30;;;34.50;52.80;;;;;;10310822;28;20217;-69
2022/06/23 09:12:13;;;;;;;11.50;7.33;;;33.90;55.00;;;;;;10303765;28;20237;-68
2022/06/23 09:17:38;;;;;;;12.00;7.10;;;33.60;55.90;;;;;;10312018;28;20231;-68
2022/06/23 09:22:39;;;;;;;16.80;7.20;;;33.10;57.00;;;;;;10303041;28;21201;-68
2022/06/23 09:27:42;;;;;;;11.37;4.77;;;34.20;56.50;;;;;;10307902;28;20279;-69
2022/06/23 09:33:07;;;;;;;9.60;5.50;;;38.30;49.10;;;;;;10303563;28;20230;-69
2022/06/23 09:38:41;;;;;;;12.50;5.67;;;39.60;45.20;;;;;;10313821;28;20217;-69
2022/06/23 09:43:51;;;;;;;15.63;5.27;;;40.10;43.70;;;;;;10283215;28;20512;-70
2022/06/23 09:48:51;;;;;;;11.67;5.27;;;40.50;44.20;;;;;;10311607;28;20272;-68
2022/06/23 09:54:24;;;;;;;10.23;5.10;;;43.50;39.70;;;;;;10294793;28;20258;-68
2022/06/23 09:59:38;;;;;;;10.40;5.07;;;43.90;36.20;;;;;;10304297;28;20225;-68
2022/06/23 10:04:51;;;;;;;11.93;5.30;;;41.30;39.30;;;;;;10309874;28;20321;-68
2022/06/23 10:10:33;;;;;;;10.07;5.40;;;42.10;39.40;;;;;;10303126;28;20292;-68
2022/06/23 10:16:02;;;;;;;11.45;5.15;;;44.60;36.60;;;;;;10280049;28;20382;-68
2022/06/23 10:21:31;;;;;;;12.40;6.00;;;45.20;35.50;;;;;;10317304;28;20217;-69
2022/06/23 10:26:39;;;;;;;11.17;5.93;;;44.40;36.50;;;;;;10310879;28;20285;-69
2022/06/23 10:32:01;;;;;;;15.53;6.50;;;42.40;38.90;;;;;;10318241;28;20223;-69
2022/06/23 10:37:11;;;;;;;23.47;6.83;;;39.70;43.20;;;;;;10312107;28;20304;-69
2022/06/23 10:42:21;;;;;;;11.43;6.63;;;37.80;46.80;;;;;;10309310;28;20222;-69
2022/06/23 10:47:42;;;;;;;11.40;7.30;;;36.90;48.20;;;;;;10294636;28;20215;-69
2022/06/23 10:52:56;;;;;;;12.13;6.00;;;37.30;48.70;;;;;;10307853;28;20232;-68
2022/06/23 10:57:59;;;;;;;14.50;6.20;;;39.20;45.30;;;;;;10316067;28;20254;-69
2022/06/23 11:03:28;;;;;;;10.70;6.00;;;40.40;42.50;;;;;;10314149;28;20233;-69
2022/06/23 11:09:17;;;;;;;9.80;6.50;;;41.40;41.20;;;;;;10321577;28;20253;-68
2022/06/23 11:14:43;;;;;;;10.67;6.00;;;40.50;42.40;;;;;;10230322;28;20299;-68
2022/06/23 11:20:02;;;;;;;13.90;6.33;;;42.90;38.30;;;;;;10309070;28;20236;-69
2022/06/23 11:25:24;;;;;;;12.13;5.53;;;42.60;38.30;;;;;;10305210;28;20226;-68
2022/06/23 11:30:46;;;;;;;9.57;5.33;;;42.60;38.60;;;;;;10314783;28;20305;-68
2022/06/23 11:36:22;;;;;;;12.03;6.13;;;44.50;35.90;;;;;;10308648;28;20859;-69
2022/06/23 11:41:32;;;;;;;11.30;6.87;;;44.30;36.00;;;;;;10317508;28;20794;-68
2022/06/23 11:46:38;;;;;;;10.13;6.17;;;41.40;39.80;;;;;;10316071;28;20735;-68
2022/06/23 11:51:57;;;;;;;9.73;5.80;;;38.60;43.20;;;;;;10314001;28;20611;-67
2022/06/23 11:57:04;;;;;;;16.30;6.97;;;36.70;46.90;;;;;;10309167;28;20281;-68
2022/06/23 12:02:05;;;;;;;13.50;6.83;;;36.00;48.50;;;;;;10312771;28;20230;-68
2022/06/23 12:07:22;;;;;;;14.43;6.80;;;35.20;49.70;;;;;;10313345;28;20673;-67
2022/06/23 12:12:23;;;;;;;10.03;6.07;;;34.50;51.10;;;;;;10290937;28;20277;-69
2022/06/23 12:17:32;;;;;;;16.40;5.77;;;34.00;51.90;;;;;;10311778;28;20582;-68
2022/06/23 12:22:44;;;;;;;12.70;5.90;;;33.90;51.60;;;;;;10307855;28;20218;-68
2022/06/23 12:27:56;;;;;;;10.20;3.90;;;33.80;51.60;;;;;;10313836;28;20221;-68
2022/06/23 12:33:09;;;;;;;7.93;3.67;;;32.50;50.90;;;;;;10307032;28;20226;-68
2022/06/23 12:38:25;;;;;;;8.93;3.73;;;32.20;52.40;;;;;;10309276;28;20232;-68
2022/06/23 12:43:57;;;;;;;10.20;3.90;;;31.80;52.90;;;;;;10300830;28;20229;-69
2022/06/23 12:49:04;;;;;;;8.73;4.10;;;32.00;52.50;;;;;;10314872;28;20213;-68
2022/06/23 12:54:21;;;;;;;12.63;4.00;;;31.80;53.00;;;;;;10291194;28;20598;-68
2022/06/23 12:59:31;;;;;;;8.43;3.40;;;31.50;53.50;;;;;;10309154;28;20302;-68
2022/06/23 13:04:45;;;;;;;9.73;3.40;;;31.80;52.80;;;;;;10311154;28;20236;-68
2022/06/23 13:09:50;;;;;;;8.80;3.70;;;31.60;51.80;;;;;;10305564;28;20226;-68
2022/06/23 13:15:03;;;;;;;10.57;3.30;;;31.50;52.40;;;;;;10319164;28;20222;-67
2022/06/23 13:20:28;;;;;;;7.70;3.30;;;31.30;52.40;;;;;;10308107;28;20233;-70
2022/06/23 13:25:36;;;;;;;11.33;3.27;;;31.70;52.20;;;;;;10309696;28;20226;-68
2022/06/23 13:31:00;;;;;;;12.40;3.80;;;32.40;50.00;;;;;;10315807;28;20313;-68
2022/06/23 13:36:17;;;;;;;6.80;2.70;;;33.10;48.50;;;;;;10302888;28;20225;-67
2022/06/23 13:41:32;;;;;;;9.07;3.40;;;33.50;47.30;;;;;;10305795;28;20218;-70
2022/06/23 13:46:39;;;;;;;11.27;3.40;;;33.80;47.60;;;;;;10312397;28;20229;-68
2022/06/23 13:52:14;;;;;;;8.00;3.30;;;33.40;47.70;;;;;;10302477;28;20237;-68
2022/06/23 13:57:33;;;;;;;10.97;3.47;;;32.20;49.50;;;;;;10277642;28;20242;-67
2022/06/23 14:03:00;;;;;;;10.93;2.93;;;31.90;50.10;;;;;;10311093;28;20229;-68
2022/06/23 14:08:04;;;;;;;9.10;3.27;;;32.20;49.70;;;;;;10305668;28;20570;-68
2022/06/23 14:13:33;;;;;;;8.43;3.30;;;32.00;50.30;;;;;;10306316;28;20297;-68
2022/06/23 14:18:55;;;;;;;7.57;2.90;;;31.80;51.00;;;;;;10309917;28;20221;-68
2022/06/23 14:24:09;;;;;;;7.83;3.23;;;31.80;51.10;;;;;;10312905;28;20644;-67
2022/06/23 14:29:17;;;;;;;11.40;3.73;;;31.60;51.20;;;;;;10306621;28;20277;-69
2022/06/23 14:34:33;;;;;;;9.97;3.17;;;31.30;51.90;;;;;;10305143;28;20226;-67
2022/06/23 14:39:39;;;;;;;9.53;2.80;;;31.20;52.00;;;;;;10308667;28;20217;-68
2022/06/23 14:45:08;;;;;;;8.43;3.03;;;31.10;51.40;;;;;;10301764;28;20223;-68
2022/06/23 14:50:15;;;;;;;8.20;3.20;;;31.30;50.60;;;;;;10295234;28;20210;-67
2022/06/23 14:55:45;;;;;;;7.70;3.20;;;31.30;51.10;;;;;;10304431;28;20217;-68
2022/06/23 15:00:58;;;;;;;7.97;2.90;;;31.60;51.10;;;;;;10307326;28;20230;-68
2022/06/23 15:06:07;;;;;;;10.67;3.43;;;31.70;51.00;;;;;;10316010;28;20659;-67
2022/06/23 15:11:31;;;;;;;10.00;3.27;;;32.00;50.80;;;;;;10311602;28;20232;-68
2022/06/23 15:16:59;;;;;;;9.23;3.07;;;32.30;50.50;;;;;;10309172;28;20269;-67
2022/06/23 15:27:37;;;;;;;6.77;3.10;;;31.50;51.70;;;;;;10323224;28;20218;-68
2022/06/23 15:32:46;;;;;;;10.87;3.33;;;31.30;51.80;;;;;;10308487;28;20253;-68
2022/06/23 15:38:15;;;;;;;6.27;2.67;;;31.00;52.30;;;;;;10307614;28;20225;-68
2022/06/23 15:43:49;;;;;;;9.37;3.07;;;31.40;51.60;;;;;;10309970;28;20317;-67
2022/06/23 15:49:08;;;;;;;8.47;3.03;;;31.90;50.90;;;;;;10315709;28;20579;-68
2022/06/23 15:54:28;;;;;;;7.73;3.00;;;32.00;50.40;;;;;;10317148;28;20234;-66
2022/06/23 15:59:41;;;;;;;8.73;3.30;;;31.60;51.10;;;;;;10312301;28;20272;-67
2022/06/23 16:04:50;;;;;;;6.77;2.77;;;31.40;51.90;;;;;;10305417;28;20697;-68
2022/06/23 16:09:54;;;;;;;5.20;2.80;;;31.40;51.80;;;;;;10321325;28;20222;-68
2022/06/23 16:15:07;;;;;;;6.60;2.70;;;31.40;52.20;;;;;;10306328;28;20214;-68
2022/06/23 16:20:14;;;;;;;8.90;3.20;;;31.30;51.40;;;;;;10315428;28;20349;-70
2022/06/23 16:25:28;;;;;;;2.87;1.90;;;31.30;51.50;;;;;;10310024;28;20634;-67
2022/06/23 16:30:39;;;;;;;7.67;2.50;;;31.20;51.40;;;;;;10307494;28;20219;-68
2022/06/23 16:35:53;;;;;;;7.10;2.90;;;31.00;51.60;;;;;;10311949;28;20210;-67
2022/06/23 16:41:08;;;;;;;8.57;2.67;;;31.10;52.00;;;;;;10320154;28;20214;-68
2022/06/23 16:46:09;;;;;;;7.23;3.10;;;31.00;52.10;;;;;;10312469;28;20232;-67
2022/06/23 16:51:15;;;;;;;5.47;2.23;;;30.90;52.10;;;;;;10308484;28;20230;-68
2022/06/23 16:56:35;;;;;;;7.07;2.13;;;30.60;52.40;;;;;;10307761;28;20226;-67
2022/06/23 17:01:35;;;;;;;8.40;2.70;;;30.50;52.50;;;;;;10308959;28;20227;-68
2022/06/23 17:06:55;;;;;;;9.50;2.63;;;30.50;52.90;;;;;;10301628;28;20694;-68
2022/06/23 17:11:58;;;;;;;6.10;2.47;;;30.50;53.00;;;;;;10309415;28;20234;-67
2022/06/23 17:17:04;;;;;;;6.27;2.43;;;30.40;52.60;;;;;;10308695;28;20225;-68
2022/06/23 17:22:44;;;;;;;5.30;3.07;;;30.40;52.90;;;;;;10310233;28;20592;-68
2022/06/23 17:28:05;;;;;;;4.07;2.23;;;30.40;52.90;;;;;;10272752;28;20267;-68
2022/06/23 17:33:29;;;;;;;5.77;2.33;;;30.30;52.20;;;;;;10307378;28;20222;-67
2022/06/23 17:44:10;;;;;;;5.90;2.27;;;30.00;52.50;;;;;;10305540;28;20608;-68
2022/06/23 17:49:19;;;;;;;8.23;2.30;;;30.00;52.80;;;;;;10306759;28;20297;-67
2022/06/23 17:54:37;;;;;;;4.77;2.20;;;29.90;52.90;;;;;;10317934;28;20269;-68
2022/06/23 17:59:57;;;;;;;7.10;2.40;;;29.90;53.00;;;;;;10311020;28;20297;-68
2022/06/23 18:05:07;;;;;;;6.93;2.30;;;29.90;53.50;;;;;;10306188;28;20222;-69
2022/06/23 18:10:27;;;;;;;4.67;2.10;;;29.90;52.80;;;;;;10307604;28;20206;-68
2022/06/23 18:15:36;;;;;;;7.23;2.20;;;29.80;52.30;;;;;;10314149;28;20252;-67
2022/06/23 18:20:53;;;;;;;5.23;2.30;;;29.80;52.60;;;;;;10307911;28;20214;-69
2022/06/23 18:26:09;;;;;;;5.27;2.20;;;29.70;52.40;;;;;;10304412;28;20236;-67
2022/06/23 18:31:09;;;;;;;6.17;2.40;;;29.60;52.70;;;;;;10308213;28;20309;-69
2022/06/23 18:36:32;;;;;;;5.83;2.33;;;29.50;53.00;;;;;;10310573;28;20321;-68
2022/06/23 18:41:49;;;;;;;3.53;2.17;;;29.40;53.50;;;;;;10314752;28;20279;-68
2022/06/23 18:47:13;;;;;;;8.63;2.83;;;29.20;53.60;;;;;;10318274;28;20210;-68
2022/06/23 18:52:17;;;;;;;6.27;2.57;;;29.00;54.20;;;;;;10309010;28;20229;-67
2022/06/23 18:57:26;;;;;;;4.70;2.47;;;28.80;54.60;;;;;;10312564;28;20225;-67
2022/06/23 19:02:33;;;;;;;3.40;1.80;;;28.70;55.00;;;;;;10318788;28;20316;-67
2022/06/23 19:07:52;;;;;;;6.90;2.30;;;28.60;54.90;;;;;;10316033;28;20304;-67
2022/06/23 19:13:34;;;;;;;6.23;2.20;;;28.50;55.40;;;;;;10313316;28;20246;-68
2022/06/23 19:18:48;;;;;;;8.93;2.60;;;28.30;55.90;;;;;;10278570;28;20568;-67
2022/06/23 19:24:15;;;;;;;3.97;2.07;;;28.10;56.20;;;;;;10317249;28;20237;-66
2022/06/23 19:29:25;;;;;;;7.30;2.30;;;28.00;56.50;;;;;;10311001;28;20234;-66
2022/06/23 19:34:31;;;;;;;7.20;2.20;;;27.90;56.70;;;;;;10313693;28;20224;-66
2022/06/23 19:39:55;;;;;;;7.80;2.87;;;27.80;57.00;;;;;;10324221;28;20229;-67
2022/06/23 19:45:28;;;;;;;5.87;2.50;;;27.70;57.40;;;;;;10309246;28;20227;-67
2022/06/23 19:50:36;;;;;;;6.43;2.43;;;27.50;58.10;;;;;;10314506;28;20217;-65
2022/06/23 19:55:40;;;;;;;4.03;2.10;;;27.30;58.50;;;;;;10314729;28;20225;-66
2022/06/23 20:00:47;;;;;;;8.67;2.60;;;27.10;60.00;;;;;;10314886;28;20252;-66
2022/06/23 20:06:01;;;;;;;7.13;3.43;;;27.00;60.10;;;;;;10307493;28;20271;-66
2022/06/23 20:11:14;;;;;;;7.10;3.37;;;26.80;60.10;;;;;;10307691;28;20227;-66
2022/06/23 20:16:28;;;;;;;5.47;3.43;;;26.70;60.10;;;;;;10309470;28;20228;-67
2022/06/23 20:21:43;;;;;;;6.40;3.07;;;26.70;60.40;;;;;;10312872;28;20225;-67
2022/06/23 20:27:38;;;;;;;5.30;2.70;;;26.60;60.30;;;;;;10304930;28;20227;-67
2022/06/23 20:32:47;;;;;;;8.27;3.57;;;26.50;60.40;;;;;;10247808;28;20243;-67
2022/06/23 20:38:16;;;;;;;7.50;2.50;;;26.30;61.30;;;;;;10305975;28;20226;-66
2022/06/23 20:43:45;;;;;;;5.37;2.53;;;26.20;61.50;;;;;;10312777;28;20717;-66
2022/06/23 20:49:03;;;;;;;6.70;2.43;;;26.10;61.90;;;;;;10313840;28;20219;-66
2022/06/23 20:54:42;;;;;;;5.37;2.53;;;26.10;62.40;;;;;;10307040;28;20269;-66
2022/06/23 20:59:46;;;;;;;4.53;2.43;;;26.10;62.80;;;;;;10223455;28;20753;-65
2022/06/23 21:05:11;;;;;;;4.43;2.70;;;26.00;63.30;;;;;;10312034;28;20233;-66
2022/06/23 21:10:25;;;;;;;4.10;2.57;;;25.90;63.80;;;;;;10309890;28;20211;-66
2022/06/23 21:16:05;;;;;;;4.37;2.50;;;25.80;64.80;;;;;;10306339;28;20219;-66
2022/06/23 21:21:23;;;;;;;6.47;2.53;;;25.70;65.50;;;;;;10261509;28;20677;-66
2022/06/23 21:26:48;;;;;;;5.30;2.53;;;25.60;65.60;;;;;;10310523;28;20428;-66
2022/06/23 21:32:15;;;;;;;4.17;2.20;;;25.60;66.20;;;;;;10314092;28;20213;-66
2022/06/23 21:37:18;;;;;;;6.73;2.50;;;25.60;66.20;;;;;;10313417;28;20265;-66
2022/06/23 21:42:26;;;;;;;4.90;2.30;;;25.60;66.50;;;;;;10302730;28;20221;-67
2022/06/23 21:48:11;;;;;;;5.63;2.50;;;25.50;66.80;;;;;;10319238;28;20308;-66
2022/06/23 21:53:39;;;;;;;5.93;3.57;;;25.50;67.70;;;;;;10326238;28;20218;-67
2022/06/23 21:59:17;;;;;;;6.93;2.90;;;25.50;68.50;;;;;;10312028;28;20247;-66
2022/06/23 22:04:32;;;;;;;8.50;3.40;;;25.60;68.10;;;;;;10314095;28;20234;-67
2022/06/23 22:09:40;;;;;;;6.13;2.93;;;25.70;68.00;;;;;;10317445;28;20211;-67
2022/06/23 22:14:44;;;;;;;6.37;2.83;;;25.80;67.80;;;;;;10306561;28;20695;-66
2022/06/23 22:19:59;;;;;;;7.43;2.87;;;25.80;67.60;;;;;;10317641;28;20731;-67
2022/06/23 22:30:35;;;;;;;25.17;3.97;;;25.80;71.00;;;;;;10309371;28;20223;-67
2022/06/23 22:35:35;;;;;;;14.60;2.83;;;25.40;73.30;;;;;;10309202;28;20299;-68
2022/06/23 22:41:05;;;;;;;15.57;2.70;;;25.10;72.00;;;;;;10317076;28;20304;-67
2022/06/23 22:46:09;;;;;;;16.40;2.10;;;24.90;70.00;;;;;;10312359;28;20247;-67
2022/06/23 22:51:10;;;;;;;11.30;1.97;;;24.60;68.10;;;;;;10316852;28;20716;-67
2022/06/23 22:56:37;;;;;;;14.10;2.10;;;24.40;68.00;;;;;;10316693;28;20255;-66
2022/06/23 23:01:44;;;;;;;12.73;2.20;;;24.20;68.00;;;;;;10311668;28;20213;-67
2022/06/23 23:06:46;;;;;;;9.50;1.90;;;24.00;68.70;;;;;;10309486;28;20265;-67
2022/06/23 23:11:47;;;;;;;12.73;1.70;;;23.80;70.10;;;;;;10315555;28;20284;-67
2022/06/23 23:16:48;;;;;;;6.23;1.87;;;23.60;71.50;;;;;;10310807;28;20296;-67
2022/06/23 23:21:49;;;;;;;8.77;2.30;;;23.50;72.80;;;;;;10309738;28;20214;-67
2022/06/23 23:27:16;;;;;;;6.83;1.70;;;23.30;74.60;;;;;;10330284;28;20693;-67
2022/06/23 23:32:20;;;;;;;6.70;1.70;;;23.10;76.00;;;;;;10309660;28;20234;-68
2022/06/23 23:37:22;;;;;;;7.97;1.97;;;23.00;77.20;;;;;;10315321;28;20225;-67
2022/06/23 23:42:23;;;;;;;7.07;1.87;;;22.80;78.40;;;;;;10328007;28;20217;-66
2022/06/23 23:47:29;;;;;;;3.57;1.10;;;22.70;79.70;;;;;;10310701;28;20349;-66
2022/06/23 23:52:31;;;;;;;7.33;1.30;;;22.60;80.80;;;;;;10322605;28;20221;-66
2022/06/23 23:57:34;;;;;;;7.97;1.90;;;22.40;81.70;;;;;;10321714;28;20230;-67
